sensor_id;sensor_type;location;lat;lon;timestamp;P1;durP1;ratioP1;P2;durP2;ratioP2
16119;SDS011;12670;53.502;10.252;2022-11-09T00:00:59;3.73;;;2.40;;
16119;SDS011;12670;53.502;10.252;2022-11-09T00:04:03;6.70;;;2.30;;
16119;SDS011;12670;53.502;10.252;2022-11-09T00:07:08;3.83;;;2.30;;
16119;SDS011;12670;53.502;10.252;2022-11-09T00:10:10;5.53;;;2.10;;
16119;SDS011;12670;53.502;10.252;2022-11-09T00:13:13;4.20;;;2.37;;
16119;SDS011;12670;53.502;10.252;2022-11-09T00:16:16;7.30;;;2.33;;
16119;SDS011;12670;53.502;10.252;2022-11-09T00:19:20;8.83;;;2.30;;
16119;SDS011;12670;53.502;10.252;2022-11-09T00:22:24;2.87;;;1.80;;
16119;SDS011;12670;53.502;10.252;2022-11-09T00:25:26;5.00;;;2.20;;
16119;SDS011;12670;53.502;10.252;2022-11-09T00:28:29;4.10;;;2.00;;
16119;SDS011;12670;53.502;10.252;2022-11-09T00:31:31;4.53;;;2.00;;
16119;SDS011;12670;53.502;10.252;2022-11-09T00:34:34;3.30;;;1.60;;
16119;SDS011;12670;53.502;10.252;2022-11-09T00:37:38;4.70;;;2.10;;
16119;SDS011;12670;53.502;10.252;2022-11-09T00:40:40;5.03;;;1.70;;
16119;SDS011;12670;53.502;10.252;2022-11-09T00:43:43;4.03;;;1.90;;
16119;SDS011;12670;53.502;10.252;2022-11-09T00:46:46;3.60;;;2.00;;
16119;SDS011;12670;53.502;10.252;2022-11-09T00:49:48;3.40;;;1.87;;
16119;SDS011;12670;53.502;10.252;2022-11-09T00:52:52;4.43;;;1.77;;
16119;SDS011;12670;53.502;10.252;2022-11-09T00:55:55;7.23;;;2.30;;
16119;SDS011;12670;53.502;10.252;2022-11-09T00:58:58;3.10;;;1.60;;
16119;SDS011;12670;53.502;10.252;2022-11-09T01:02:00;7.37;;;2.00;;
16119;SDS011;12670;53.502;10.252;2022-11-09T01:05:03;6.70;;;1.97;;
16119;SDS011;12670;53.502;10.252;2022-11-09T01:08:08;6.53;;;1.90;;
16119;SDS011;12670;53.502;10.252;2022-11-09T01:11:11;4.40;;;1.90;;
16119;SDS011;12670;53.502;10.252;2022-11-09T01:14:14;5.37;;;2.00;;
16119;SDS011;12670;53.502;10.252;2022-11-09T01:17:16;5.83;;;2.23;;
16119;SDS011;12670;53.502;10.252;2022-11-09T01:20:19;4.30;;;2.23;;
16119;SDS011;12670;53.502;10.252;2022-11-09T01:23:23;3.13;;;1.90;;
16119;SDS011;12670;53.502;10.252;2022-11-09T01:26:26;6.60;;;2.40;;
16119;SDS011;12670;53.502;10.252;2022-11-09T01:29:28;6.67;;;2.10;;
16119;SDS011;12670;53.502;10.252;2022-11-09T01:32:31;6.37;;;2.03;;
16119;SDS011;12670;53.502;10.252;2022-11-09T01:35:34;8.20;;;1.90;;
16119;SDS011;12670;53.502;10.252;2022-11-09T01:38:39;4.60;;;2.20;;
16119;SDS011;12670;53.502;10.252;2022-11-09T01:41:42;3.83;;;1.90;;
16119;SDS011;12670;53.502;10.252;2022-11-09T01:44:44;6.00;;;1.80;;
16119;SDS011;12670;53.502;10.252;2022-11-09T01:47:48;6.47;;;2.00;;
16119;SDS011;12670;53.502;10.252;2022-11-09T01:50:55;4.57;;;2.07;;
16119;SDS011;12670;53.502;10.252;2022-11-09T01:54:02;6.00;;;2.00;;
16119;SDS011;12670;53.502;10.252;2022-11-09T01:57:08;5.83;;;1.80;;
16119;SDS011;12670;53.502;10.252;2022-11-09T02:00:14;4.57;;;1.90;;
16119;SDS011;12670;53.502;10.252;2022-11-09T02:03:19;5.40;;;1.93;;
16119;SDS011;12670;53.502;10.252;2022-11-09T02:06:26;5.33;;;1.80;;
16119;SDS011;12670;53.502;10.252;2022-11-09T02:09:35;4.60;;;1.80;;
16119;SDS011;12670;53.502;10.252;2022-11-09T02:12:41;5.13;;;2.07;;
16119;SDS011;12670;53.502;10.252;2022-11-09T02:15:46;3.93;;;1.73;;
16119;SDS011;12670;53.502;10.252;2022-11-09T02:18:50;3.70;;;2.00;;
16119;SDS011;12670;53.502;10.252;2022-11-09T02:21:55;4.33;;;2.00;;
16119;SDS011;12670;53.502;10.252;2022-11-09T02:24:58;4.40;;;1.70;;
16119;SDS011;12670;53.502;10.252;2022-11-09T02:28:01;4.20;;;1.90;;
16119;SDS011;12670;53.502;10.252;2022-11-09T02:31:04;7.77;;;2.23;;
16119;SDS011;12670;53.502;10.252;2022-11-09T02:34:10;3.13;;;2.03;;
16119;SDS011;12670;53.502;10.252;2022-11-09T02:37:24;3.20;;;2.10;;
16119;SDS011;12670;53.502;10.252;2022-11-09T02:40:28;6.67;;;2.07;;
16119;SDS011;12670;53.502;10.252;2022-11-09T02:43:36;3.47;;;1.80;;
16119;SDS011;12670;53.502;10.252;2022-11-09T02:46:39;6.83;;;2.03;;
16119;SDS011;12670;53.502;10.252;2022-11-09T02:49:41;6.27;;;2.00;;
16119;SDS011;12670;53.502;10.252;2022-11-09T02:52:45;7.00;;;2.43;;
16119;SDS011;12670;53.502;10.252;2022-11-09T02:55:48;2.57;;;1.80;;
16119;SDS011;12670;53.502;10.252;2022-11-09T02:58:50;3.03;;;1.60;;
16119;SDS011;12670;53.502;10.252;2022-11-09T03:01:53;3.73;;;1.80;;
16119;SDS011;12670;53.502;10.252;2022-11-09T03:04:55;5.97;;;2.10;;
16119;SDS011;12670;53.502;10.252;2022-11-09T03:07:59;4.70;;;2.20;;
16119;SDS011;12670;53.502;10.252;2022-11-09T03:11:02;3.27;;;2.07;;
16119;SDS011;12670;53.502;10.252;2022-11-09T03:14:06;5.47;;;1.87;;
16119;SDS011;12670;53.502;10.252;2022-11-09T03:17:09;4.83;;;2.13;;
16119;SDS011;12670;53.502;10.252;2022-11-09T03:20:14;5.20;;;1.90;;
16119;SDS011;12670;53.502;10.252;2022-11-09T03:23:18;4.93;;;1.93;;
16119;SDS011;12670;53.502;10.252;2022-11-09T03:26:21;8.03;;;2.23;;
16119;SDS011;12670;53.502;10.252;2022-11-09T03:29:24;3.57;;;1.60;;
16119;SDS011;12670;53.502;10.252;2022-11-09T03:32:26;4.07;;;2.07;;
16119;SDS011;12670;53.502;10.252;2022-11-09T03:35:29;4.27;;;1.80;;
16119;SDS011;12670;53.502;10.252;2022-11-09T03:38:33;8.00;;;2.20;;
16119;SDS011;12670;53.502;10.252;2022-11-09T03:41:35;5.33;;;1.90;;
16119;SDS011;12670;53.502;10.252;2022-11-09T03:44:38;4.00;;;1.80;;
16119;SDS011;12670;53.502;10.252;2022-11-09T03:47:40;7.27;;;2.00;;
16119;SDS011;12670;53.502;10.252;2022-11-09T03:50:43;7.57;;;1.97;;
16119;SDS011;12670;53.502;10.252;2022-11-09T03:53:47;6.37;;;1.87;;
16119;SDS011;12670;53.502;10.252;2022-11-09T03:56:49;2.73;;;1.80;;
16119;SDS011;12670;53.502;10.252;2022-11-09T03:59:52;4.50;;;2.00;;
16119;SDS011;12670;53.502;10.252;2022-11-09T04:02:54;3.00;;;1.70;;
16119;SDS011;12670;53.502;10.252;2022-11-09T04:05:57;4.90;;;2.20;;
16119;SDS011;12670;53.502;10.252;2022-11-09T04:09:01;5.03;;;2.00;;
16119;SDS011;12670;53.502;10.252;2022-11-09T04:12:04;4.83;;;1.70;;
16119;SDS011;12670;53.502;10.252;2022-11-09T04:15:07;5.30;;;2.03;;
16119;SDS011;12670;53.502;10.252;2022-11-09T04:18:11;3.83;;;1.40;;
16119;SDS011;12670;53.502;10.252;2022-11-09T04:21:15;4.77;;;1.70;;
16119;SDS011;12670;53.502;10.252;2022-11-09T04:24:25;5.53;;;1.90;;
16119;SDS011;12670;53.502;10.252;2022-11-09T04:27:27;4.70;;;2.10;;
16119;SDS011;12670;53.502;10.252;2022-11-09T04:30:31;7.80;;;1.87;;
16119;SDS011;12670;53.502;10.252;2022-11-09T04:33:35;4.60;;;1.90;;
16119;SDS011;12670;53.502;10.252;2022-11-09T04:36:37;3.87;;;1.77;;
16119;SDS011;12670;53.502;10.252;2022-11-09T04:39:41;3.50;;;1.80;;
16119;SDS011;12670;53.502;10.252;2022-11-09T04:42:44;8.47;;;1.83;;
16119;SDS011;12670;53.502;10.252;2022-11-09T04:45:46;5.87;;;2.07;;
16119;SDS011;12670;53.502;10.252;2022-11-09T04:48:49;7.27;;;1.80;;
16119;SDS011;12670;53.502;10.252;2022-11-09T04:51:51;4.43;;;1.77;;
16119;SDS011;12670;53.502;10.252;2022-11-09T04:54:55;3.93;;;1.80;;
16119;SDS011;12670;53.502;10.252;2022-11-09T04:57:58;7.10;;;1.70;;
16119;SDS011;12670;53.502;10.252;2022-11-09T05:01:01;4.90;;;1.67;;
16119;SDS011;12670;53.502;10.252;2022-11-09T05:04:04;4.20;;;1.70;;
16119;SDS011;12670;53.502;10.252;2022-11-09T05:07:06;5.73;;;1.63;;
16119;SDS011;12670;53.502;10.252;2022-11-09T05:10:10;6.57;;;1.80;;
16119;SDS011;12670;53.502;10.252;2022-11-09T05:13:13;3.77;;;1.57;;
16119;SDS011;12670;53.502;10.252;2022-11-09T05:16:17;4.20;;;1.90;;
16119;SDS011;12670;53.502;10.252;2022-11-09T05:19:19;2.53;;;1.60;;
16119;SDS011;12670;53.502;10.252;2022-11-09T05:22:22;5.50;;;1.90;;
16119;SDS011;12670;53.502;10.252;2022-11-09T05:25:43;2.73;;;1.53;;
16119;SDS011;12670;53.502;10.252;2022-11-09T05:28:46;5.30;;;1.87;;
16119;SDS011;12670;53.502;10.252;2022-11-09T05:31:49;2.87;;;1.73;;
16119;SDS011;12670;53.502;10.252;2022-11-09T05:34:52;3.80;;;1.70;;
16119;SDS011;12670;53.502;10.252;2022-11-09T05:37:55;4.57;;;1.70;;
16119;SDS011;12670;53.502;10.252;2022-11-09T05:40:59;2.97;;;1.77;;
16119;SDS011;12670;53.502;10.252;2022-11-09T05:44:01;6.97;;;2.00;;
16119;SDS011;12670;53.502;10.252;2022-11-09T05:47:04;8.00;;;1.90;;
16119;SDS011;12670;53.502;10.252;2022-11-09T05:50:07;4.40;;;2.00;;
16119;SDS011;12670;53.502;10.252;2022-11-09T05:53:11;3.97;;;1.90;;
16119;SDS011;12670;53.502;10.252;2022-11-09T05:56:15;3.23;;;1.97;;
16119;SDS011;12670;53.502;10.252;2022-11-09T05:59:18;4.43;;;2.10;;
16119;SDS011;12670;53.502;10.252;2022-11-09T06:02:20;5.80;;;2.00;;
16119;SDS011;12670;53.502;10.252;2022-11-09T06:05:23;5.47;;;2.10;;
16119;SDS011;12670;53.502;10.252;2022-11-09T06:08:26;3.97;;;2.10;;
16119;SDS011;12670;53.502;10.252;2022-11-09T06:11:29;2.80;;;1.73;;
16119;SDS011;12670;53.502;10.252;2022-11-09T06:14:32;4.80;;;2.03;;
16119;SDS011;12670;53.502;10.252;2022-11-09T06:17:34;6.07;;;2.47;;
16119;SDS011;12670;53.502;10.252;2022-11-09T06:20:37;5.83;;;2.37;;
16119;SDS011;12670;53.502;10.252;2022-11-09T06:23:40;5.97;;;2.10;;
16119;SDS011;12670;53.502;10.252;2022-11-09T06:26:43;4.13;;;2.20;;
16119;SDS011;12670;53.502;10.252;2022-11-09T06:29:46;4.67;;;2.00;;
16119;SDS011;12670;53.502;10.252;2022-11-09T06:32:48;3.37;;;2.13;;
16119;SDS011;12670;53.502;10.252;2022-11-09T06:35:51;3.70;;;2.00;;
16119;SDS011;12670;53.502;10.252;2022-11-09T06:38:56;4.97;;;2.00;;
16119;SDS011;12670;53.502;10.252;2022-11-09T06:42:00;5.73;;;1.90;;
16119;SDS011;12670;53.502;10.252;2022-11-09T06:45:03;4.60;;;2.23;;
16119;SDS011;12670;53.502;10.252;2022-11-09T06:48:07;5.20;;;2.23;;
16119;SDS011;12670;53.502;10.252;2022-11-09T06:51:10;6.27;;;2.40;;
16119;SDS011;12670;53.502;10.252;2022-11-09T06:54:13;3.73;;;2.00;;
16119;SDS011;12670;53.502;10.252;2022-11-09T06:57:17;6.90;;;2.33;;
16119;SDS011;12670;53.502;10.252;2022-11-09T07:00:19;6.70;;;1.97;;
16119;SDS011;12670;53.502;10.252;2022-11-09T07:03:23;6.67;;;2.20;;
16119;SDS011;12670;53.502;10.252;2022-11-09T07:06:25;5.67;;;2.17;;
16119;SDS011;12670;53.502;10.252;2022-11-09T07:09:28;5.73;;;2.10;;
16119;SDS011;12670;53.502;10.252;2022-11-09T07:12:32;5.53;;;1.90;;
16119;SDS011;12670;53.502;10.252;2022-11-09T07:15:36;7.10;;;2.03;;
16119;SDS011;12670;53.502;10.252;2022-11-09T07:18:39;3.43;;;1.70;;
16119;SDS011;12670;53.502;10.252;2022-11-09T07:21:41;4.00;;;1.87;;
16119;SDS011;12670;53.502;10.252;2022-11-09T07:24:44;4.03;;;1.90;;
16119;SDS011;12670;53.502;10.252;2022-11-09T07:27:48;9.80;;;2.30;;
16119;SDS011;12670;53.502;10.252;2022-11-09T07:30:51;4.80;;;2.00;;
16119;SDS011;12670;53.502;10.252;2022-11-09T07:33:54;6.13;;;1.80;;
16119;SDS011;12670;53.502;10.252;2022-11-09T07:36:58;2.77;;;1.47;;
16119;SDS011;12670;53.502;10.252;2022-11-09T07:40:01;3.63;;;1.80;;
16119;SDS011;12670;53.502;10.252;2022-11-09T07:43:05;3.40;;;1.80;;
16119;SDS011;12670;53.502;10.252;2022-11-09T07:46:08;5.30;;;1.90;;
16119;SDS011;12670;53.502;10.252;2022-11-09T07:49:10;4.70;;;1.90;;
16119;SDS011;12670;53.502;10.252;2022-11-09T07:52:13;4.57;;;2.17;;
16119;SDS011;12670;53.502;10.252;2022-11-09T07:55:16;3.03;;;1.50;;
16119;SDS011;12670;53.502;10.252;2022-11-09T07:58:20;5.03;;;1.77;;
16119;SDS011;12670;53.502;10.252;2022-11-09T08:01:22;5.37;;;1.70;;
16119;SDS011;12670;53.502;10.252;2022-11-09T08:04:25;4.80;;;1.60;;
16119;SDS011;12670;53.502;10.252;2022-11-09T08:07:28;4.37;;;1.87;;
16119;SDS011;12670;53.502;10.252;2022-11-09T08:10:30;4.80;;;1.60;;
16119;SDS011;12670;53.502;10.252;2022-11-09T08:13:36;5.13;;;1.70;;
16119;SDS011;12670;53.502;10.252;2022-11-09T08:16:38;3.57;;;1.43;;
16119;SDS011;12670;53.502;10.252;2022-11-09T08:19:41;4.67;;;1.60;;
16119;SDS011;12670;53.502;10.252;2022-11-09T08:22:44;8.03;;;1.80;;
16119;SDS011;12670;53.502;10.252;2022-11-09T08:25:47;2.73;;;1.63;;
16119;SDS011;12670;53.502;10.252;2022-11-09T08:28:51;3.90;;;1.60;;
16119;SDS011;12670;53.502;10.252;2022-11-09T08:31:54;5.70;;;1.73;;
16119;SDS011;12670;53.502;10.252;2022-11-09T08:34:56;8.20;;;1.80;;
16119;SDS011;12670;53.502;10.252;2022-11-09T08:37:59;6.63;;;1.80;;
16119;SDS011;12670;53.502;10.252;2022-11-09T08:41:03;3.37;;;1.60;;
16119;SDS011;12670;53.502;10.252;2022-11-09T08:44:14;4.33;;;1.50;;
16119;SDS011;12670;53.502;10.252;2022-11-09T08:47:17;5.40;;;1.83;;
16119;SDS011;12670;53.502;10.252;2022-11-09T08:50:19;8.67;;;1.93;;
16119;SDS011;12670;53.502;10.252;2022-11-09T08:53:22;5.40;;;2.10;;
16119;SDS011;12670;53.502;10.252;2022-11-09T08:56:25;7.30;;;1.87;;
16119;SDS011;12670;53.502;10.252;2022-11-09T08:59:29;8.97;;;1.90;;
16119;SDS011;12670;53.502;10.252;2022-11-09T09:02:31;5.47;;;1.90;;
16119;SDS011;12670;53.502;10.252;2022-11-09T09:05:34;4.93;;;1.80;;
16119;SDS011;12670;53.502;10.252;2022-11-09T09:08:37;6.03;;;2.30;;
16119;SDS011;12670;53.502;10.252;2022-11-09T09:11:40;4.73;;;1.90;;
16119;SDS011;12670;53.502;10.252;2022-11-09T09:14:44;6.70;;;1.97;;
16119;SDS011;12670;53.502;10.252;2022-11-09T09:17:46;4.90;;;1.87;;
16119;SDS011;12670;53.502;10.252;2022-11-09T09:20:49;5.53;;;2.10;;
16119;SDS011;12670;53.502;10.252;2022-11-09T09:23:52;7.33;;;2.17;;
16119;SDS011;12670;53.502;10.252;2022-11-09T09:26:55;8.00;;;2.23;;
16119;SDS011;12670;53.502;10.252;2022-11-09T09:29:59;8.43;;;2.00;;
16119;SDS011;12670;53.502;10.252;2022-11-09T09:33:01;5.57;;;2.03;;
16119;SDS011;12670;53.502;10.252;2022-11-09T09:36:04;8.40;;;2.17;;
16119;SDS011;12670;53.502;10.252;2022-11-09T09:39:07;8.00;;;1.97;;
16119;SDS011;12670;53.502;10.252;2022-11-09T09:42:11;6.47;;;2.00;;
16119;SDS011;12670;53.502;10.252;2022-11-09T09:45:19;6.40;;;2.10;;
16119;SDS011;12670;53.502;10.252;2022-11-09T09:51:47;4.40;;;1.70;;
16119;SDS011;12670;53.502;10.252;2022-11-09T09:54:55;5.23;;;1.63;;
16119;SDS011;12670;53.502;10.252;2022-11-09T09:58:03;6.67;;;1.90;;
16119;SDS011;12670;53.502;10.252;2022-11-09T10:01:11;4.43;;;1.80;;
16119;SDS011;12670;53.502;10.252;2022-11-09T10:04:17;9.43;;;1.90;;
16119;SDS011;12670;53.502;10.252;2022-11-09T10:07:24;8.70;;;2.07;;
16119;SDS011;12670;53.502;10.252;2022-11-09T10:10:35;6.20;;;2.03;;
16119;SDS011;12670;53.502;10.252;2022-11-09T10:13:48;6.73;;;1.60;;
16119;SDS011;12670;53.502;10.252;2022-11-09T10:17:13;7.93;;;2.10;;
16119;SDS011;12670;53.502;10.252;2022-11-09T10:20:30;8.30;;;2.00;;
16119;SDS011;12670;53.502;10.252;2022-11-09T10:23:48;7.77;;;2.27;;
16119;SDS011;12670;53.502;10.252;2022-11-09T10:27:01;6.43;;;2.10;;
16119;SDS011;12670;53.502;10.252;2022-11-09T10:30:19;10.23;;;2.13;;
16119;SDS011;12670;53.502;10.252;2022-11-09T10:33:24;6.03;;;2.07;;
16119;SDS011;12670;53.502;10.252;2022-11-09T10:36:29;8.80;;;2.00;;
16119;SDS011;12670;53.502;10.252;2022-11-09T10:39:38;9.20;;;2.07;;
16119;SDS011;12670;53.502;10.252;2022-11-09T10:42:44;7.10;;;2.10;;
16119;SDS011;12670;53.502;10.252;2022-11-09T10:45:56;9.03;;;2.17;;
16119;SDS011;12670;53.502;10.252;2022-11-09T10:49:16;10.17;;;2.30;;
16119;SDS011;12670;53.502;10.252;2022-11-09T10:52:32;5.03;;;1.80;;
16119;SDS011;12670;53.502;10.252;2022-11-09T10:55:50;8.03;;;1.87;;
16119;SDS011;12670;53.502;10.252;2022-11-09T10:58:54;6.37;;;1.77;;
16119;SDS011;12670;53.502;10.252;2022-11-09T11:01:57;4.13;;;1.57;;
16119;SDS011;12670;53.502;10.252;2022-11-09T11:08:31;9.20;;;2.07;;
16119;SDS011;12670;53.502;10.252;2022-11-09T11:11:38;8.67;;;1.80;;
16119;SDS011;12670;53.502;10.252;2022-11-09T11:14:42;7.83;;;1.90;;
16119;SDS011;12670;53.502;10.252;2022-11-09T11:17:45;4.70;;;1.50;;
16119;SDS011;12670;53.502;10.252;2022-11-09T11:21:04;11.57;;;1.60;;
16119;SDS011;12670;53.502;10.252;2022-11-09T11:24:19;5.87;;;1.73;;
16119;SDS011;12670;53.502;10.252;2022-11-09T11:27:23;11.17;;;2.00;;
16119;SDS011;12670;53.502;10.252;2022-11-09T11:30:30;4.03;;;1.97;;
16119;SDS011;12670;53.502;10.252;2022-11-09T11:33:36;4.93;;;1.80;;
16119;SDS011;12670;53.502;10.252;2022-11-09T11:36:43;6.87;;;1.87;;
16119;SDS011;12670;53.502;10.252;2022-11-09T11:39:58;9.40;;;2.30;;
16119;SDS011;12670;53.502;10.252;2022-11-09T11:43:10;10.00;;;2.10;;
16119;SDS011;12670;53.502;10.252;2022-11-09T11:46:26;8.07;;;1.90;;
16119;SDS011;12670;53.502;10.252;2022-11-09T11:49:49;9.17;;;2.20;;
16119;SDS011;12670;53.502;10.252;2022-11-09T11:53:07;7.13;;;2.00;;
16119;SDS011;12670;53.502;10.252;2022-11-09T11:56:19;6.87;;;1.80;;
16119;SDS011;12670;53.502;10.252;2022-11-09T11:59:46;7.10;;;2.10;;
16119;SDS011;12670;53.502;10.252;2022-11-09T12:03:04;10.93;;;2.10;;
16119;SDS011;12670;53.502;10.252;2022-11-09T12:06:19;9.83;;;1.80;;
16119;SDS011;12670;53.502;10.252;2022-11-09T12:09:45;12.30;;;2.43;;
16119;SDS011;12670;53.502;10.252;2022-11-09T12:13:02;8.00;;;1.77;;
16119;SDS011;12670;53.502;10.252;2022-11-09T12:16:14;6.93;;;1.70;;
16119;SDS011;12670;53.502;10.252;2022-11-09T12:19:34;8.97;;;1.97;;
16119;SDS011;12670;53.502;10.252;2022-11-09T12:23:02;8.23;;;2.03;;
16119;SDS011;12670;53.502;10.252;2022-11-09T12:26:20;7.60;;;1.90;;
16119;SDS011;12670;53.502;10.252;2022-11-09T12:29:35;11.07;;;2.00;;
16119;SDS011;12670;53.502;10.252;2022-11-09T12:32:43;8.97;;;1.97;;
16119;SDS011;12670;53.502;10.252;2022-11-09T12:35:53;7.50;;;1.97;;
16119;SDS011;12670;53.502;10.252;2022-11-09T12:39:00;7.17;;;1.97;;
16119;SDS011;12670;53.502;10.252;2022-11-09T12:42:14;11.07;;;2.30;;
16119;SDS011;12670;53.502;10.252;2022-11-09T12:45:21;7.20;;;1.80;;
16119;SDS011;12670;53.502;10.252;2022-11-09T12:48:29;9.93;;;2.10;;
16119;SDS011;12670;53.502;10.252;2022-11-09T12:51:34;14.20;;;2.87;;
16119;SDS011;12670;53.502;10.252;2022-11-09T12:54:39;8.87;;;2.23;;
16119;SDS011;12670;53.502;10.252;2022-11-09T12:57:46;7.23;;;1.90;;
16119;SDS011;12670;53.502;10.252;2022-11-09T13:00:51;7.00;;;1.97;;
16119;SDS011;12670;53.502;10.252;2022-11-09T13:03:55;6.03;;;2.00;;
16119;SDS011;12670;53.502;10.252;2022-11-09T13:07:16;6.50;;;1.53;;
16119;SDS011;12670;53.502;10.252;2022-11-09T13:10:30;5.90;;;1.90;;
16119;SDS011;12670;53.502;10.252;2022-11-09T13:13:35;7.93;;;2.33;;
16119;SDS011;12670;53.502;10.252;2022-11-09T13:16:38;6.88;;;1.50;;
16119;SDS011;12670;53.502;10.252;2022-11-09T13:19:48;9.73;;;1.90;;
16119;SDS011;12670;53.502;10.252;2022-11-09T13:22:56;7.77;;;1.93;;
16119;SDS011;12670;53.502;10.252;2022-11-09T13:26:01;14.80;;;1.80;;
16119;SDS011;12670;53.502;10.252;2022-11-09T13:29:09;5.68;;;1.55;;
16119;SDS011;12670;53.502;10.252;2022-11-09T13:32:24;5.47;;;1.95;;
16119;SDS011;12670;53.502;10.252;2022-11-09T13:42:32;10.63;;;2.58;;
16119;SDS011;12670;53.502;10.252;2022-11-09T13:45:40;6.07;;;1.60;;
16119;SDS011;12670;53.502;10.252;2022-11-09T13:48:44;12.63;;;1.92;;
16119;SDS011;12670;53.502;10.252;2022-11-09T13:51:48;8.10;;;2.20;;
16119;SDS011;12670;53.502;10.252;2022-11-09T13:54:51;8.10;;;2.00;;
16119;SDS011;12670;53.502;10.252;2022-11-09T13:57:56;8.03;;;2.00;;
16119;SDS011;12670;53.502;10.252;2022-11-09T14:01:04;8.23;;;2.07;;
16119;SDS011;12670;53.502;10.252;2022-11-09T14:04:13;7.27;;;1.90;;
16119;SDS011;12670;53.502;10.252;2022-11-09T14:07:22;4.93;;;2.00;;
16119;SDS011;12670;53.502;10.252;2022-11-09T14:10:32;5.00;;;1.80;;
16119;SDS011;12670;53.502;10.252;2022-11-09T14:13:52;9.50;;;2.13;;
16119;SDS011;12670;53.502;10.252;2022-11-09T14:17:12;9.50;;;2.30;;
16119;SDS011;12670;53.502;10.252;2022-11-09T14:20:24;6.17;;;2.13;;
16119;SDS011;12670;53.502;10.252;2022-11-09T14:23:32;8.40;;;1.93;;
16119;SDS011;12670;53.502;10.252;2022-11-09T14:26:35;12.37;;;2.40;;
16119;SDS011;12670;53.502;10.252;2022-11-09T14:29:45;7.83;;;2.30;;
16119;SDS011;12670;53.502;10.252;2022-11-09T14:32:52;14.07;;;1.80;;
16119;SDS011;12670;53.502;10.252;2022-11-09T14:35:56;6.70;;;2.07;;
16119;SDS011;12670;53.502;10.252;2022-11-09T14:39:02;6.83;;;2.13;;
16119;SDS011;12670;53.502;10.252;2022-11-09T14:42:10;9.13;;;2.43;;
16119;SDS011;12670;53.502;10.252;2022-11-09T14:45:18;6.43;;;2.37;;
16119;SDS011;12670;53.502;10.252;2022-11-09T14:48:23;7.97;;;2.63;;
16119;SDS011;12670;53.502;10.252;2022-11-09T14:51:31;5.40;;;1.70;;
16119;SDS011;12670;53.502;10.252;2022-11-09T14:54:36;10.43;;;2.10;;
16119;SDS011;12670;53.502;10.252;2022-11-09T14:57:46;10.00;;;2.43;;
16119;SDS011;12670;53.502;10.252;2022-11-09T15:01:05;12.37;;;2.73;;
16119;SDS011;12670;53.502;10.252;2022-11-09T15:04:12;6.60;;;1.97;;
16119;SDS011;12670;53.502;10.252;2022-11-09T15:07:18;7.70;;;2.10;;
16119;SDS011;12670;53.502;10.252;2022-11-09T15:10:23;5.77;;;2.00;;
16119;SDS011;12670;53.502;10.252;2022-11-09T15:13:31;9.47;;;2.00;;
16119;SDS011;12670;53.502;10.252;2022-11-09T15:16:35;6.77;;;1.90;;
16119;SDS011;12670;53.502;10.252;2022-11-09T15:19:47;12.50;;;2.27;;
16119;SDS011;12670;53.502;10.252;2022-11-09T15:22:51;11.47;;;2.40;;
16119;SDS011;12670;53.502;10.252;2022-11-09T15:25:56;9.17;;;2.30;;
16119;SDS011;12670;53.502;10.252;2022-11-09T15:28:58;6.00;;;2.20;;
16119;SDS011;12670;53.502;10.252;2022-11-09T15:32:07;7.83;;;2.47;;
16119;SDS011;12670;53.502;10.252;2022-11-09T15:35:16;7.00;;;2.53;;
16119;SDS011;12670;53.502;10.252;2022-11-09T15:38:26;9.50;;;2.50;;
16119;SDS011;12670;53.502;10.252;2022-11-09T15:41:31;11.40;;;2.30;;
16119;SDS011;12670;53.502;10.252;2022-11-09T15:44:33;10.67;;;2.50;;
16119;SDS011;12670;53.502;10.252;2022-11-09T15:47:37;4.73;;;2.00;;
16119;SDS011;12670;53.502;10.252;2022-11-09T15:50:43;7.83;;;1.93;;
16119;SDS011;12670;53.502;10.252;2022-11-09T15:53:45;11.27;;;2.50;;
16119;SDS011;12670;53.502;10.252;2022-11-09T15:56:48;4.97;;;2.03;;
16119;SDS011;12670;53.502;10.252;2022-11-09T15:59:52;6.80;;;2.03;;
16119;SDS011;12670;53.502;10.252;2022-11-09T16:02:54;5.07;;;1.93;;
16119;SDS011;12670;53.502;10.252;2022-11-09T16:05:58;7.73;;;2.00;;
16119;SDS011;12670;53.502;10.252;2022-11-09T16:09:01;8.50;;;2.33;;
16119;SDS011;12670;53.502;10.252;2022-11-09T16:12:04;8.80;;;2.03;;
16119;SDS011;12670;53.502;10.252;2022-11-09T16:15:07;12.37;;;1.93;;
16119;SDS011;12670;53.502;10.252;2022-11-09T16:18:10;7.37;;;1.90;;
16119;SDS011;12670;53.502;10.252;2022-11-09T16:21:15;5.97;;;1.77;;
16119;SDS011;12670;53.502;10.252;2022-11-09T16:24:18;5.97;;;1.80;;
16119;SDS011;12670;53.502;10.252;2022-11-09T16:27:21;5.93;;;1.77;;
16119;SDS011;12670;53.502;10.252;2022-11-09T16:30:44;9.37;;;2.47;;
16119;SDS011;12670;53.502;10.252;2022-11-09T16:33:47;6.23;;;2.33;;
16119;SDS011;12670;53.502;10.252;2022-11-09T16:36:51;10.20;;;2.23;;
16119;SDS011;12670;53.502;10.252;2022-11-09T16:39:57;5.97;;;2.50;;
16119;SDS011;12670;53.502;10.252;2022-11-09T16:43:00;9.63;;;3.27;;
16119;SDS011;12670;53.502;10.252;2022-11-09T16:46:03;8.83;;;2.33;;
16119;SDS011;12670;53.502;10.252;2022-11-09T16:49:06;9.97;;;2.43;;
16119;SDS011;12670;53.502;10.252;2022-11-09T16:52:10;7.17;;;2.47;;
16119;SDS011;12670;53.502;10.252;2022-11-09T16:55:13;6.57;;;2.37;;
16119;SDS011;12670;53.502;10.252;2022-11-09T16:58:16;7.67;;;2.50;;
16119;SDS011;12670;53.502;10.252;2022-11-09T17:01:19;5.53;;;2.10;;
16119;SDS011;12670;53.502;10.252;2022-11-09T17:04:24;8.80;;;2.23;;
16119;SDS011;12670;53.502;10.252;2022-11-09T17:07:28;5.87;;;2.10;;
16119;SDS011;12670;53.502;10.252;2022-11-09T17:10:44;7.70;;;2.20;;
16119;SDS011;12670;53.502;10.252;2022-11-09T17:13:52;7.73;;;2.27;;
16119;SDS011;12670;53.502;10.252;2022-11-09T17:16:56;8.60;;;2.23;;
16119;SDS011;12670;53.502;10.252;2022-11-09T17:19:58;9.07;;;2.30;;
16119;SDS011;12670;53.502;10.252;2022-11-09T17:23:06;11.13;;;3.10;;
16119;SDS011;12670;53.502;10.252;2022-11-09T17:26:09;8.33;;;2.47;;
16119;SDS011;12670;53.502;10.252;2022-11-09T17:29:12;9.00;;;2.50;;
16119;SDS011;12670;53.502;10.252;2022-11-09T17:32:15;8.33;;;2.20;;
16119;SDS011;12670;53.502;10.252;2022-11-09T17:35:22;6.63;;;2.43;;
16119;SDS011;12670;53.502;10.252;2022-11-09T17:38:26;6.13;;;2.70;;
16119;SDS011;12670;53.502;10.252;2022-11-09T17:41:30;7.00;;;3.60;;
16119;SDS011;12670;53.502;10.252;2022-11-09T17:44:32;8.83;;;4.30;;
16119;SDS011;12670;53.502;10.252;2022-11-09T17:47:35;9.07;;;3.23;;
16119;SDS011;12670;53.502;10.252;2022-11-09T17:50:38;9.87;;;3.70;;
16119;SDS011;12670;53.502;10.252;2022-11-09T17:53:42;9.33;;;3.43;;
16119;SDS011;12670;53.502;10.252;2022-11-09T17:56:45;10.80;;;2.90;;
16119;SDS011;12670;53.502;10.252;2022-11-09T17:59:48;9.53;;;2.13;;
16119;SDS011;12670;53.502;10.252;2022-11-09T18:02:52;5.53;;;2.10;;
16119;SDS011;12670;53.502;10.252;2022-11-09T18:05:55;8.50;;;2.50;;
16119;SDS011;12670;53.502;10.252;2022-11-09T18:08:59;10.47;;;2.47;;
16119;SDS011;12670;53.502;10.252;2022-11-09T18:12:22;6.27;;;2.30;;
16119;SDS011;12670;53.502;10.252;2022-11-09T18:15:25;8.17;;;2.30;;
16119;SDS011;12670;53.502;10.252;2022-11-09T18:18:27;6.33;;;2.40;;
16119;SDS011;12670;53.502;10.252;2022-11-09T18:21:30;6.83;;;2.30;;
16119;SDS011;12670;53.502;10.252;2022-11-09T18:24:35;10.87;;;2.50;;
16119;SDS011;12670;53.502;10.252;2022-11-09T18:27:37;11.00;;;1.90;;
16119;SDS011;12670;53.502;10.252;2022-11-09T18:30:40;6.80;;;2.30;;
16119;SDS011;12670;53.502;10.252;2022-11-09T18:33:42;6.37;;;2.10;;